createdAt,value
2017-09-12T00:02:28.595Z,76.50
2017-09-12T00:04:56.860Z,76.50
2017-09-12T00:07:25.863Z,77.40
2017-09-12T00:09:54.114Z,77.40
2017-09-12T00:12:23.123Z,78.90
2017-09-12T00:14:52.174Z,79.00
2017-09-12T00:17:20.454Z,78.90
2017-09-12T00:19:48.694Z,78.70
2017-09-12T00:22:16.994Z,78.80
2017-09-12T00:24:45.210Z,78.80
2017-09-12T00:27:13.474Z,79.00
2017-09-12T00:29:42.615Z,78.60
2017-09-12T00:32:11.640Z,78.90
2017-09-12T00:34:39.887Z,78.90
2017-09-12T00:37:08.121Z,80.00
2017-09-12T00:39:36.383Z,79.00
2017-09-12T00:42:04.658Z,79.80
2017-09-12T00:44:32.935Z,80.80
2017-09-12T00:47:01.203Z,79.20
2017-09-12T00:49:29.453Z,79.60
2017-09-12T00:51:57.813Z,79.80
2017-09-12T00:54:26.053Z,79.50
2017-09-12T00:56:54.335Z,79.00
2017-09-12T00:59:22.572Z,79.50
2017-09-12T01:01:50.830Z,79.20
2017-09-12T01:04:20.014Z,78.90
2017-09-12T01:06:48.270Z,78.90
2017-09-12T01:09:16.527Z,78.80
2017-09-12T01:11:44.759Z,79.20
2017-09-12T01:14:13.023Z,79.20
2017-09-12T01:16:41.306Z,78.40
2017-09-12T01:19:10.334Z,78.70
2017-09-12T01:21:38.624Z,78.70
2017-09-12T01:24:06.904Z,78.80
2017-09-12T01:26:35.166Z,79.10
2017-09-12T01:29:03.415Z,79.10
2017-09-12T01:31:31.720Z,78.50
2017-09-12T01:33:59.956Z,78.90
2017-09-12T01:36:29.011Z,78.00
2017-09-12T01:38:57.264Z,78.00
2017-09-12T01:41:25.559Z,78.70
2017-09-12T01:43:53.799Z,79.40
2017-09-12T01:46:22.055Z,78.80
2017-09-12T01:48:50.305Z,78.10
2017-09-12T01:51:18.647Z,78.50
2017-09-12T01:53:46.863Z,78.30
2017-09-12T01:56:15.910Z,78.90
2017-09-12T01:58:44.163Z,78.80
2017-09-12T02:01:13.196Z,79.10
2017-09-12T02:03:41.422Z,79.10
2017-09-12T02:06:09.663Z,79.20
2017-09-12T02:08:37.971Z,78.00
2017-09-12T02:11:06.224Z,77.70
2017-09-12T02:13:34.510Z,77.90
2017-09-12T02:16:02.738Z,78.10
2017-09-12T02:18:30.991Z,79.20
2017-09-12T02:20:59.677Z,79.20
2017-09-12T02:23:27.959Z,79.70
2017-09-12T02:25:56.165Z,80.50
2017-09-12T02:28:24.396Z,79.00
2017-09-12T02:30:52.645Z,79.60
2017-09-12T02:33:20.917Z,79.30
2017-09-12T02:35:49.170Z,78.90
2017-09-12T02:38:18.154Z,78.10
2017-09-12T02:40:47.192Z,79.20
2017-09-12T02:43:15.426Z,79.10
2017-09-12T02:45:44.457Z,78.80
2017-09-12T02:48:12.753Z,78.80
2017-09-12T02:50:40.989Z,78.70
2017-09-12T02:53:09.206Z,78.70
2017-09-12T02:55:37.455Z,78.10
2017-09-12T02:58:05.691Z,78.50
2017-09-12T03:00:34.705Z,78.20
2017-09-12T03:03:02.990Z,78.10
2017-09-12T03:05:31.247Z,78.20
2017-09-12T03:08:00.297Z,78.20
2017-09-12T03:10:28.518Z,78.20
2017-09-12T03:12:57.515Z,78.50
2017-09-12T03:15:26.558Z,78.40
2017-09-12T03:17:54.784Z,78.30
2017-09-12T03:20:23.900Z,78.10
2017-09-12T03:22:52.139Z,78.10
2017-09-12T03:25:20.422Z,78.30
2017-09-12T03:27:49.439Z,78.10
2017-09-12T03:30:17.667Z,78.10
2017-09-12T03:32:45.932Z,78.40
2017-09-12T03:35:14.167Z,79.00
2017-09-12T03:37:43.189Z,80.00
2017-09-12T03:40:11.430Z,80.00
2017-09-12T03:42:40.434Z,79.80
2017-09-12T03:45:09.458Z,79.90
2017-09-12T03:47:37.717Z,79.80
2017-09-12T03:50:05.976Z,80.10
2017-09-12T03:52:34.973Z,80.10
2017-09-12T03:55:03.250Z,80.10
2017-09-12T03:57:32.305Z,81.50
2017-09-12T04:00:00.523Z,81.40
2017-09-12T04:02:28.774Z,82.70
2017-09-12T04:04:57.836Z,83.00
2017-09-12T04:07:26.090Z,83.00
2017-09-12T04:09:54.365Z,83.70
2017-09-12T04:12:22.654Z,83.20
2017-09-12T04:14:50.905Z,84.40
2017-09-12T04:17:19.182Z,84.30
2017-09-12T04:19:48.204Z,84.20
2017-09-12T04:22:16.475Z,84.20
2017-09-12T04:24:44.747Z,84.70
2017-09-12T04:27:13.014Z,84.40
2017-09-12T04:29:41.306Z,84.60
2017-09-12T04:32:09.595Z,84.30
2017-09-12T04:34:37.880Z,84.00
2017-09-12T04:37:06.135Z,83.80
2017-09-12T04:39:34.370Z,84.00
2017-09-12T04:42:02.761Z,83.80
2017-09-12T04:44:31.011Z,83.80
2017-09-12T04:46:59.294Z,83.70
2017-09-12T04:49:27.597Z,83.70
2017-09-12T04:51:55.898Z,84.00
2017-09-12T04:54:24.917Z,84.60
2017-09-12T04:56:53.318Z,85.30
2017-09-12T04:59:21.575Z,84.60
2017-09-12T05:01:49.802Z,84.40
2017-09-12T05:04:18.141Z,83.90
2017-09-12T05:06:46.364Z,83.90
2017-09-12T05:09:15.448Z,83.60
2017-09-12T05:11:43.734Z,83.60
2017-09-12T05:14:11.950Z,84.20
2017-09-12T05:16:40.178Z,84.10
2017-09-12T05:19:09.227Z,84.90
2017-09-12T05:21:37.482Z,84.10
2017-09-12T05:24:05.729Z,83.90
2017-09-12T05:26:34.010Z,84.60
2017-09-12T05:29:02.273Z,84.30
2017-09-12T05:31:30.507Z,84.50
2017-09-12T05:33:58.750Z,85.10
2017-09-12T05:36:27.756Z,84.80
2017-09-12T05:38:56.764Z,84.60
2017-09-12T05:41:25.005Z,84.60
2017-09-12T05:43:53.421Z,84.50
2017-09-12T05:46:22.395Z,84.40
2017-09-12T05:48:50.647Z,84.40
2017-09-12T05:51:18.924Z,84.10
2017-09-12T05:53:47.227Z,83.80
2017-09-12T05:56:16.386Z,83.10
2017-09-12T05:58:44.639Z,83.10
2017-09-12T06:01:12.930Z,83.00
2017-09-12T06:03:41.206Z,82.90
2017-09-12T06:06:09.480Z,82.70
2017-09-12T06:08:37.719Z,82.80
2017-09-12T06:11:06.750Z,83.00
2017-09-12T06:13:34.989Z,83.00
2017-09-12T06:16:03.252Z,84.10
2017-09-12T06:18:32.278Z,84.90
2017-09-12T06:21:00.554Z,84.90
2017-09-12T06:23:28.814Z,84.90
2017-09-12T06:25:57.062Z,86.40
2017-09-12T06:28:25.309Z,86.80
2017-09-12T06:30:53.607Z,86.70
2017-09-12T06:33:22.749Z,86.80
2017-09-12T06:35:51.735Z,86.60
2017-09-12T06:38:20.015Z,86.60
2017-09-12T06:40:48.998Z,86.40
2017-09-12T06:43:18.025Z,86.50
2017-09-12T06:45:46.257Z,86.50
2017-09-12T06:48:15.317Z,86.40
2017-09-12T06:50:43.570Z,86.40
2017-09-12T06:53:11.847Z,85.80
2017-09-12T06:55:40.077Z,85.60
2017-09-12T06:58:08.398Z,86.30
2017-09-12T07:00:36.650Z,86.00
2017-09-12T07:03:05.675Z,85.50
2017-09-12T07:05:33.939Z,85.40
2017-09-12T07:08:02.176Z,86.30
2017-09-12T07:10:30.437Z,85.00
2017-09-12T07:12:58.708Z,84.80
2017-09-12T07:15:26.977Z,84.30
2017-09-12T07:17:55.266Z,84.10
2017-09-12T07:20:23.508Z,83.90
2017-09-12T07:22:51.795Z,83.80
2017-09-12T07:25:20.122Z,82.40
2017-09-12T07:27:48.357Z,84.00
2017-09-12T07:30:16.684Z,82.20
2017-09-12T07:32:44.967Z,81.60
2017-09-12T07:35:13.194Z,82.40
2017-09-12T07:37:41.479Z,82.10
2017-09-12T07:40:09.727Z,83.30
2017-09-12T07:42:37.999Z,82.50
2017-09-12T07:45:07.054Z,82.20
2017-09-12T07:47:35.306Z,82.00
2017-09-12T07:50:03.545Z,81.40
2017-09-12T07:52:31.790Z,80.90
2017-09-12T07:55:00.825Z,81.00
2017-09-12T07:57:29.087Z,81.00
2017-09-12T07:59:58.090Z,79.50
2017-09-12T08:02:26.405Z,79.50
2017-09-12T08:04:54.693Z,80.20
2017-09-12T08:07:22.944Z,79.10
2017-09-12T08:09:51.196Z,80.90
2017-09-12T08:12:20.081Z,80.20
2017-09-12T08:14:49.119Z,78.40
2017-09-12T08:17:17.383Z,78.30
2017-09-12T08:19:46.451Z,80.20
2017-09-12T08:22:15.469Z,79.70
2017-09-12T08:24:43.769Z,79.60
2017-09-12T08:27:12.019Z,78.90
2017-09-12T08:29:40.314Z,79.30
2017-09-12T08:32:08.627Z,79.30
2017-09-12T08:34:36.911Z,79.00
2017-09-12T08:37:06.480Z,79.20
2017-09-12T08:39:34.725Z,79.10
2017-09-12T08:42:03.070Z,78.30
2017-09-12T08:44:32.107Z,77.40
2017-09-12T08:47:00.357Z,77.40
2017-09-12T08:49:29.390Z,76.90
2017-09-12T08:51:57.630Z,76.80
2017-09-12T08:54:25.901Z,77.40
2017-09-12T08:56:54.892Z,75.50
2017-09-12T08:59:23.930Z,75.70
2017-09-12T09:01:52.211Z,75.40
2017-09-12T09:04:20.470Z,76.40
2017-09-12T09:06:49.504Z,73.20
2017-09-12T09:09:17.774Z,73.20
2017-09-12T09:11:46.033Z,73.90
2017-09-12T09:14:14.278Z,73.00
2017-09-12T09:16:43.294Z,74.00
2017-09-12T09:19:11.604Z,74.00
2017-09-12T09:21:39.859Z,74.60
2017-09-12T09:24:08.097Z,73.10
2017-09-12T09:26:37.119Z,70.00
2017-09-12T09:29:05.383Z,69.90
2017-09-12T09:31:33.666Z,69.80
2017-09-12T09:34:02.659Z,69.30
2017-09-12T09:36:31.662Z,67.90
2017-09-12T09:38:59.983Z,67.80
2017-09-12T09:41:28.230Z,69.10
2017-09-12T09:43:56.509Z,68.30
2017-09-12T09:46:24.786Z,69.10
2017-09-12T09:48:53.033Z,67.50
2017-09-12T09:51:22.042Z,68.00
2017-09-12T09:53:50.326Z,67.90
2017-09-12T09:56:18.623Z,68.10
2017-09-12T09:58:46.873Z,67.30
2017-09-12T10:01:15.866Z,67.70
2017-09-12T10:03:44.117Z,67.70
2017-09-12T10:06:12.381Z,68.40
2017-09-12T10:08:40.641Z,68.70
2017-09-12T10:11:08.869Z,68.80
2017-09-12T10:13:37.902Z,71.80
2017-09-12T10:16:06.156Z,71.80
2017-09-12T10:18:34.400Z,72.50
2017-09-12T10:21:03.435Z,72.20
2017-09-12T10:23:31.777Z,72.20
2017-09-12T10:26:00.008Z,72.10
2017-09-12T10:28:28.266Z,72.10
2017-09-12T10:30:56.534Z,70.60
2017-09-12T10:33:24.795Z,72.70
2017-09-12T10:35:54.415Z,70.30
2017-09-12T10:38:22.694Z,70.20
2017-09-12T10:40:51.722Z,68.70
2017-09-12T10:43:19.986Z,69.30
2017-09-12T10:45:48.240Z,69.50
2017-09-12T10:48:17.279Z,66.20
2017-09-12T10:50:45.507Z,66.20
2017-09-12T10:53:14.534Z,65.00
2017-09-12T10:55:43.547Z,65.00
2017-09-12T10:58:11.791Z,63.70
2017-09-12T11:00:40.087Z,63.00
2017-09-12T11:03:08.366Z,63.80
2017-09-12T11:05:36.681Z,63.40
2017-09-12T11:08:04.930Z,64.50
2017-09-12T11:10:34.093Z,64.70
2017-09-12T11:13:02.353Z,63.90
2017-09-12T11:15:30.644Z,63.00
2017-09-12T11:17:58.902Z,63.00
2017-09-12T11:20:27.166Z,61.40
2017-09-12T11:22:55.433Z,61.50
2017-09-12T11:25:23.689Z,61.80
2017-09-12T11:27:51.940Z,62.30
2017-09-12T11:30:20.235Z,63.30
2017-09-12T11:32:48.454Z,62.40
2017-09-12T11:35:17.486Z,58.70
2017-09-12T11:37:45.775Z,58.70
2017-09-12T11:40:14.012Z,60.90
2017-09-12T11:42:43.025Z,62.80
2017-09-12T11:45:11.286Z,62.80
2017-09-12T11:47:40.310Z,69.20
2017-09-12T11:50:08.543Z,69.20
2017-09-12T11:52:37.602Z,70.70
2017-09-12T11:55:05.858Z,70.70
2017-09-12T11:57:34.090Z,66.80
2017-09-12T12:00:03.139Z,67.00
2017-09-12T12:02:31.453Z,66.90
2017-09-12T12:04:59.692Z,67.60
2017-09-12T12:07:27.956Z,67.40
2017-09-12T12:09:56.209Z,67.40
2017-09-12T12:12:24.467Z,66.90
2017-09-12T12:14:53.479Z,70.10
2017-09-12T12:17:22.526Z,69.80
2017-09-12T12:19:50.797Z,69.80
2017-09-12T12:22:19.079Z,67.60
2017-09-12T12:24:47.314Z,64.40
2017-09-12T12:27:16.338Z,64.90
2017-09-12T12:29:44.613Z,64.90
2017-09-12T12:32:12.886Z,63.30
2017-09-12T12:34:41.231Z,62.30
2017-09-12T12:37:10.254Z,62.10
2017-09-12T12:39:38.566Z,62.00
2017-09-12T12:42:06.794Z,61.40
2017-09-12T12:44:35.077Z,62.10
2017-09-12T12:47:04.095Z,62.00
2017-09-12T12:49:32.349Z,61.90
2017-09-12T12:52:00.641Z,60.80
2017-09-12T12:54:29.649Z,61.50
2017-09-12T12:56:57.940Z,61.40
2017-09-12T12:59:26.224Z,61.00
2017-09-12T13:01:54.452Z,61.40
2017-09-12T13:04:22.712Z,61.90
2017-09-12T13:06:51.754Z,64.30
2017-09-12T13:09:20.024Z,64.30
2017-09-12T13:11:48.271Z,63.40
2017-09-12T13:14:16.559Z,63.60
2017-09-12T13:16:44.826Z,62.90
2017-09-12T13:19:13.903Z,60.60
2017-09-12T13:21:42.139Z,60.60
2017-09-12T13:24:10.411Z,61.20
2017-09-12T13:26:38.676Z,60.10
2017-09-12T13:29:06.908Z,60.40
2017-09-12T13:31:35.185Z,60.00
2017-09-12T13:34:03.441Z,60.60
2017-09-12T13:36:31.707Z,60.80
2017-09-12T13:39:00.034Z,60.90
2017-09-12T13:41:28.290Z,63.70
2017-09-12T13:43:56.526Z,63.30
2017-09-12T13:46:25.635Z,62.70
2017-09-12T13:48:54.721Z,62.10
2017-09-12T13:51:22.955Z,62.00
2017-09-12T13:53:52.049Z,62.40
2017-09-12T13:56:20.275Z,62.40
2017-09-12T13:58:48.537Z,62.10
2017-09-12T14:01:16.973Z,61.80
2017-09-12T14:03:45.998Z,62.70
2017-09-12T14:06:14.294Z,62.10
2017-09-12T14:08:42.552Z,63.30
2017-09-12T14:11:10.817Z,66.80
2017-09-12T14:13:39.902Z,71.50
2017-09-12T14:16:08.993Z,73.20
2017-09-12T14:18:38.083Z,73.20
2017-09-12T14:21:06.469Z,73.00
2017-09-12T14:23:34.707Z,73.60
2017-09-12T14:26:02.998Z,73.40
2017-09-12T14:28:31.303Z,73.00
2017-09-12T14:31:00.308Z,72.40
2017-09-12T14:33:28.630Z,72.40
2017-09-12T14:35:56.909Z,72.10
2017-09-12T14:38:25.151Z,72.30
2017-09-12T14:40:53.441Z,71.70
2017-09-12T14:43:21.760Z,71.60
2017-09-12T14:45:50.013Z,72.30
2017-09-12T14:48:18.286Z,71.40
2017-09-12T14:50:46.721Z,70.40
2017-09-12T14:53:14.954Z,72.10
2017-09-12T14:55:43.229Z,72.20
2017-09-12T14:58:11.504Z,70.10
2017-09-12T15:00:39.767Z,69.20
2017-09-12T15:03:08.799Z,69.50
2017-09-12T15:05:37.061Z,69.50
2017-09-12T15:08:05.416Z,68.10
2017-09-12T15:10:33.679Z,68.20
2017-09-12T15:13:01.979Z,67.00
2017-09-12T15:15:30.243Z,67.00
2017-09-12T15:17:58.600Z,66.50
2017-09-12T15:20:26.832Z,65.40
2017-09-12T15:22:55.120Z,65.00
2017-09-12T15:25:23.387Z,66.10
2017-09-12T15:27:51.659Z,66.60
2017-09-12T15:30:19.888Z,66.60
2017-09-12T15:32:48.199Z,66.90
2017-09-12T15:35:16.450Z,67.00
2017-09-12T15:37:45.536Z,66.80
2017-09-12T15:40:13.840Z,66.80
2017-09-12T15:42:42.097Z,67.80
2017-09-12T15:45:11.138Z,67.50
2017-09-12T15:47:39.386Z,66.90
2017-09-12T15:50:07.660Z,67.20
2017-09-12T15:52:35.911Z,66.70
2017-09-12T15:55:04.194Z,66.60
2017-09-12T15:57:32.426Z,66.80
2017-09-12T16:00:00.705Z,65.70
2017-09-12T16:02:29.014Z,65.50
2017-09-12T16:04:57.259Z,64.30
2017-09-12T16:07:25.523Z,65.10
2017-09-12T16:09:53.796Z,65.60
2017-09-12T16:12:22.077Z,66.30
2017-09-12T16:14:50.392Z,67.10
2017-09-12T16:17:18.643Z,67.70
2017-09-12T16:19:46.903Z,68.20
2017-09-12T16:22:15.157Z,67.80
2017-09-12T16:24:43.516Z,68.30
2017-09-12T16:27:11.718Z,68.20
2017-09-12T16:29:40.028Z,68.20
2017-09-12T16:32:08.261Z,67.80
2017-09-12T16:34:36.543Z,67.80
2017-09-12T16:37:05.567Z,69.00
2017-09-12T16:39:33.815Z,68.90
2017-09-12T16:42:02.762Z,69.00
2017-09-12T16:44:31.016Z,68.60
2017-09-12T16:46:59.842Z,69.40
2017-09-12T16:49:28.078Z,70.40
2017-09-12T16:51:56.358Z,70.00
2017-09-12T16:54:24.632Z,70.30
2017-09-12T16:56:52.893Z,70.20
2017-09-12T16:59:21.197Z,70.40
2017-09-12T17:01:49.447Z,70.50
2017-09-12T17:04:18.482Z,70.40
2017-09-12T17:06:46.746Z,70.40
2017-09-12T17:09:14.991Z,70.80
2017-09-12T17:11:44.052Z,70.50
2017-09-12T17:14:12.292Z,70.50
2017-09-12T17:16:40.557Z,71.20
2017-09-12T17:19:08.788Z,71.70
2017-09-12T17:21:37.086Z,71.40
2017-09-12T17:24:06.092Z,71.60
2017-09-12T17:26:34.405Z,71.60
2017-09-12T17:29:02.749Z,71.50
2017-09-12T17:31:31.824Z,70.90
2017-09-12T17:34:00.921Z,70.90
2017-09-12T17:36:30.004Z,71.00
2017-09-12T17:38:59.038Z,70.90
2017-09-12T17:41:27.298Z,70.90
2017-09-12T17:43:56.380Z,71.50
2017-09-12T17:46:24.749Z,71.40
2017-09-12T17:48:56.005Z,71.70
2017-09-12T17:51:24.745Z,72.00
2017-09-12T17:53:53.385Z,72.60
2017-09-12T17:56:22.551Z,72.30
2017-09-12T17:58:50.831Z,72.30
2017-09-12T18:01:19.199Z,72.60
2017-09-12T18:03:47.542Z,73.00
2017-09-12T18:06:16.667Z,72.90
2017-09-12T18:08:45.578Z,72.90
2017-09-12T18:11:13.873Z,73.10
2017-09-12T18:13:42.220Z,73.70
2017-09-12T18:16:10.515Z,73.70
2017-09-12T18:18:39.130Z,73.80
2017-09-12T18:21:07.454Z,73.60
2017-09-12T18:23:35.803Z,73.70
2017-09-12T18:26:04.121Z,73.70
2017-09-12T18:28:32.411Z,73.80
2017-09-12T18:31:00.722Z,73.60
2017-09-12T18:33:30.038Z,73.90
2017-09-12T18:35:59.100Z,73.80
2017-09-12T18:38:27.371Z,73.40
2017-09-12T18:40:58.273Z,73.50
2017-09-12T18:43:26.914Z,73.50
2017-09-12T18:45:55.273Z,73.80
2017-09-12T18:48:25.324Z,74.30
2017-09-12T18:50:53.582Z,74.30
2017-09-12T18:53:22.632Z,74.30
2017-09-12T18:55:51.460Z,73.80
2017-09-12T18:58:19.745Z,75.10
2017-09-12T19:00:48.778Z,74.60
2017-09-12T19:03:17.042Z,74.60
2017-09-12T19:05:46.148Z,75.50
2017-09-12T19:08:15.186Z,76.00
2017-09-12T19:10:43.731Z,75.90
2017-09-12T19:13:13.727Z,77.10
2017-09-12T19:15:42.920Z,77.80
2017-09-12T19:18:12.129Z,76.90
2017-09-12T19:20:41.198Z,77.20
2017-09-12T19:23:09.484Z,77.10
2017-09-12T19:25:37.819Z,77.40
2017-09-12T19:28:06.928Z,77.60
2017-09-12T19:30:35.180Z,77.50
2017-09-12T19:33:03.468Z,77.50
2017-09-12T19:35:31.775Z,77.10
2017-09-12T19:38:00.139Z,77.10
2017-09-12T19:40:28.399Z,76.70
2017-09-12T19:42:56.703Z,76.00
2017-09-12T19:45:24.998Z,76.20
2017-09-12T19:47:53.245Z,77.90
2017-09-12T19:50:21.524Z,79.60
2017-09-12T19:52:49.798Z,80.10
2017-09-12T19:55:18.130Z,80.50
2017-09-12T19:57:46.415Z,80.70
2017-09-12T20:00:15.458Z,80.70
2017-09-12T20:02:44.139Z,80.70
2017-09-12T20:05:12.402Z,80.90
2017-09-12T20:07:40.904Z,81.60
2017-09-12T20:10:09.236Z,81.40
2017-09-12T20:12:38.377Z,82.30
2017-09-12T20:15:06.900Z,82.30
2017-09-12T20:17:35.200Z,81.60
2017-09-12T20:20:03.550Z,82.50
2017-09-12T20:22:31.827Z,82.20
2017-09-12T20:25:00.161Z,81.90
2017-09-12T20:27:28.542Z,82.10
2017-09-12T20:29:58.416Z,82.70
2017-09-12T20:32:26.766Z,82.60
2017-09-12T20:34:55.067Z,82.60
2017-09-12T20:37:23.355Z,82.00
2017-09-12T20:39:51.647Z,82.00
2017-09-12T20:42:20.430Z,81.60
2017-09-12T20:44:48.713Z,81.80
2017-09-12T20:47:16.989Z,81.60
2017-09-12T20:49:46.025Z,82.00
2017-09-12T20:52:15.116Z,81.90
2017-09-12T20:54:43.386Z,81.90
2017-09-12T20:57:11.674Z,82.10
2017-09-12T20:59:39.921Z,82.70
2017-09-12T21:02:08.216Z,82.40
2017-09-12T21:04:36.495Z,82.30
2017-09-12T21:07:04.770Z,82.10
2017-09-12T21:09:33.020Z,82.00
2017-09-12T21:12:02.048Z,81.40
2017-09-12T21:14:30.328Z,81.30
2017-09-12T21:16:58.626Z,81.70
2017-09-12T21:19:26.919Z,81.80
2017-09-12T21:21:55.205Z,81.50
2017-09-12T21:24:23.502Z,81.40
2017-09-12T21:26:52.503Z,82.20
2017-09-12T21:29:21.494Z,81.30
2017-09-12T21:31:49.789Z,81.30
2017-09-12T21:34:18.050Z,81.30
2017-09-12T21:36:47.089Z,81.30
2017-09-12T21:39:15.361Z,81.20
2017-09-12T21:41:43.640Z,81.50
2017-09-12T21:44:11.901Z,81.50
2017-09-12T21:46:40.179Z,81.40
2017-09-12T21:49:09.091Z,81.70
2017-09-12T21:51:37.341Z,81.40
2017-09-12T21:54:05.586Z,81.30
2017-09-12T21:56:33.890Z,81.50
2017-09-12T21:59:02.913Z,81.20
2017-09-12T22:01:31.151Z,81.20
2017-09-12T22:03:59.407Z,82.00
2017-09-12T22:06:28.465Z,81.60
2017-09-12T22:08:56.726Z,81.50
2017-09-12T22:11:24.973Z,81.70
2017-09-12T22:13:53.982Z,81.40
2017-09-12T22:16:22.276Z,81.40
2017-09-12T22:18:50.555Z,81.30
2017-09-12T22:21:18.789Z,81.60
2017-09-12T22:23:47.841Z,81.40
2017-09-12T22:26:16.138Z,81.20
2017-09-12T22:28:44.419Z,81.30
2017-09-12T22:31:12.671Z,80.80
2017-09-12T22:33:40.895Z,81.00
2017-09-12T22:36:09.924Z,80.70
2017-09-12T22:38:38.167Z,80.70
2017-09-12T22:41:07.177Z,80.90
2017-09-12T22:43:36.206Z,80.50
2017-09-12T22:46:04.476Z,81.20
2017-09-12T22:48:32.696Z,81.00
2017-09-12T22:51:00.975Z,80.80
2017-09-12T22:53:30.022Z,80.20
2017-09-12T22:55:58.268Z,80.20
2017-09-12T22:58:26.531Z,80.60
2017-09-12T23:00:55.562Z,81.20
2017-09-12T23:03:23.806Z,80.60
2017-09-12T23:05:52.826Z,80.40
2017-09-12T23:08:21.116Z,80.40
2017-09-12T23:10:49.381Z,80.80
2017-09-12T23:13:18.830Z,80.50
2017-09-12T23:15:47.070Z,80.60
2017-09-12T23:18:15.326Z,80.40
2017-09-12T23:20:44.366Z,80.50
2017-09-12T23:23:13.333Z,80.00
2017-09-12T23:25:41.586Z,80.00
2017-09-12T23:28:09.825Z,80.40
2017-09-12T23:30:39.585Z,80.60
2017-09-12T23:33:07.853Z,80.50
2017-09-12T23:35:36.871Z,80.30
2017-09-12T23:38:05.096Z,80.30
2017-09-12T23:40:33.351Z,80.20
2017-09-12T23:43:01.625Z,79.90
2017-09-12T23:45:29.864Z,79.70
2017-09-12T23:47:58.136Z,79.40
2017-09-12T23:50:27.134Z,79.20
2017-09-12T23:52:55.383Z,79.20
2017-09-12T23:55:24.458Z,78.90
2017-09-12T23:57:52.731Z,78.80
